Time;durP1;ratioP1;P1;durP2;ratioP2;P2;SDS_P1;SDS_P2;PMS_P1;PMS_P2;Temp;Humidity;BMP_temperature;BMP_pressure;BME280_temperature;BME280_humidity;BME280_pressure;Samples;Min_cycle;Max_cycle;Signal;HPM_P1;HPM_P2
2024/01/29 00:00:04;;;;;;;10.70;5.70;;;4.40;99.90;;;;;;5044883;28;20075;-65
2024/01/29 00:02:32;;;;;;;8.77;5.18;;;4.30;99.90;;;;;;5052772;28;20033;-65
2024/01/29 00:04:57;;;;;;;9.45;5.88;;;4.40;99.90;;;;;;5035899;28;20043;-66
2024/01/29 00:07:23;;;;;;;10.73;5.75;;;4.50;99.90;;;;;;5042420;28;20561;-65
2024/01/29 00:09:48;;;;;;;8.73;5.22;;;4.60;99.90;;;;;;5046837;28;20475;-65
2024/01/29 00:12:14;;;;;;;9.40;5.85;;;4.50;99.90;;;;;;5050907;28;20049;-65
2024/01/29 00:14:39;;;;;;;11.20;5.72;;;4.40;99.90;;;;;;5038848;28;20041;-65
2024/01/29 00:17:05;;;;;;;12.02;5.72;;;4.40;99.90;;;;;;5044721;28;20025;-65
2024/01/29 00:19:30;;;;;;;12.68;5.50;;;4.40;99.90;;;;;;5052449;28;20398;-65
2024/01/29 00:21:56;;;;;;;12.32;5.90;;;4.30;99.90;;;;;;5041764;28;20059;-66
2024/01/29 00:24:22;;;;;;;11.95;6.05;;;4.20;99.90;;;;;;5041635;28;20065;-65
2024/01/29 00:26:49;;;;;;;10.05;6.30;;;4.20;99.90;;;;;;5049225;28;20045;-65
2024/01/29 00:29:15;;;;;;;9.70;5.50;;;4.20;99.90;;;;;;5033671;28;20048;-66
2024/01/29 00:31:40;;;;;;;9.73;5.40;;;4.20;99.90;;;;;;5032992;28;20116;-67
2024/01/29 00:34:06;;;;;;;9.77;5.70;;;4.20;99.90;;;;;;5040995;28;20037;-66
2024/01/29 00:36:32;;;;;;;11.05;5.90;;;4.10;99.90;;;;;;5050900;28;20067;-66
2024/01/29 00:38:57;;;;;;;10.63;5.80;;;4.10;99.90;;;;;;5043886;28;20037;-67
2024/01/29 00:41:23;;;;;;;8.60;5.47;;;4.10;99.90;;;;;;5045020;28;20041;-66
2024/01/29 00:43:49;;;;;;;11.40;5.85;;;4.10;99.90;;;;;;5053379;28;20094;-65
2024/01/29 00:46:15;;;;;;;13.05;5.50;;;4.10;99.90;;;;;;5046635;28;20037;-65
2024/01/29 00:48:41;;;;;;;9.27;5.60;;;4.00;99.90;;;;;;5047728;28;20499;-66
2024/01/29 00:51:07;;;;;;;9.25;5.63;;;4.00;99.90;;;;;;5044352;28;20112;-65
2024/01/29 00:53:33;;;;;;;9.73;5.72;;;3.90;99.90;;;;;;5048244;28;20451;-66
2024/01/29 00:55:58;;;;;;;10.63;6.13;;;4.00;99.90;;;;;;5038586;28;20037;-66
2024/01/29 00:58:24;;;;;;;10.63;5.88;;;4.00;99.90;;;;;;5044627;28;20196;-64
2024/01/29 01:00:50;;;;;;;11.63;6.22;;;4.00;99.90;;;;;;5050922;28;20044;-67
2024/01/29 01:03:16;;;;;;;10.80;5.47;;;4.00;99.90;;;;;;5046201;28;20043;-65
2024/01/29 01:05:41;;;;;;;8.95;5.65;;;4.00;99.90;;;;;;5044289;28;20044;-67
2024/01/29 01:08:07;;;;;;;9.65;5.60;;;4.00;99.90;;;;;;5052963;28;20041;-66
2024/01/29 01:10:33;;;;;;;9.63;5.88;;;4.00;99.90;;;;;;5044626;28;20033;-65
2024/01/29 01:12:59;;;;;;;11.15;5.97;;;3.90;99.90;;;;;;5044176;28;20724;-65
2024/01/29 01:15:24;;;;;;;10.70;5.70;;;3.90;99.90;;;;;;5044377;28;20045;-65
2024/01/29 01:17:50;;;;;;;9.30;5.40;;;3.80;99.90;;;;;;5052890;28;20526;-65
2024/01/29 01:20:16;;;;;;;11.82;6.00;;;3.80;99.90;;;;;;5032753;28;20038;-66
2024/01/29 01:22:41;;;;;;;10.43;6.03;;;3.80;99.90;;;;;;5041547;28;20040;-66
2024/01/29 01:25:07;;;;;;;11.40;5.28;;;3.80;99.90;;;;;;5047878;28;20051;-67
2024/01/29 01:27:33;;;;;;;12.18;6.30;;;3.80;99.90;;;;;;5040810;28;20037;-65
2024/01/29 01:29:59;;;;;;;9.38;5.50;;;3.90;99.90;;;;;;5041037;28;20444;-65
2024/01/29 01:32:25;;;;;;;9.02;5.60;;;3.90;99.90;;;;;;5034651;28;20092;-65
2024/01/29 01:34:51;;;;;;;10.20;5.97;;;3.90;99.90;;;;;;5031100;28;20077;-66
2024/01/29 01:37:16;;;;;;;11.48;6.25;;;3.90;99.90;;;;;;5033983;28;20091;-66
2024/01/29 01:39:42;;;;;;;10.80;5.95;;;3.90;99.90;;;;;;5048314;28;20483;-66
2024/01/29 01:42:08;;;;;;;10.90;5.97;;;3.90;99.90;;;;;;5047641;28;20087;-66
2024/01/29 01:44:34;;;;;;;10.35;5.97;;;3.80;99.90;;;;;;5045317;28;20048;-66
2024/01/29 01:46:59;;;;;;;11.30;5.90;;;3.90;99.90;;;;;;5038136;28;20580;-66
2024/01/29 01:49:25;;;;;;;10.95;5.78;;;3.80;99.90;;;;;;5043014;28;20041;-65
2024/01/29 01:51:51;;;;;;;9.93;6.03;;;3.80;99.90;;;;;;5042460;28;20042;-64
2024/01/29 01:54:17;;;;;;;11.38;6.50;;;3.80;99.90;;;;;;5046636;28;20028;-65
2024/01/29 01:56:45;;;;;;;12.90;6.30;;;3.80;99.90;;;;;;5044377;28;20037;-65
2024/01/29 01:59:11;;;;;;;9.02;5.78;;;3.80;99.90;;;;;;5051985;28;20044;-66
2024/01/29 02:01:38;;;;;;;8.73;5.45;;;3.70;99.90;;;;;;5040479;28;20047;-65
2024/01/29 02:04:04;;;;;;;10.18;6.03;;;3.70;99.90;;;;;;5044224;28;20034;-65
2024/01/29 02:06:29;;;;;;;11.27;6.28;;;3.70;99.90;;;;;;5048944;28;20455;-65
2024/01/29 02:08:55;;;;;;;11.68;6.13;;;3.70;99.90;;;;;;5044694;28;20034;-66
2024/01/29 02:11:21;;;;;;;11.35;6.50;;;3.80;99.90;;;;;;5040049;28;20033;-64
2024/01/29 02:13:46;;;;;;;9.27;5.80;;;3.80;99.90;;;;;;5042997;28;20450;-66
2024/01/29 02:16:12;;;;;;;11.43;6.00;;;3.70;99.90;;;;;;5050350;28;20049;-65
2024/01/29 02:18:37;;;;;;;12.68;6.13;;;3.70;99.90;;;;;;5046807;28;20029;-65
2024/01/29 02:21:03;;;;;;;10.75;6.05;;;3.70;99.90;;;;;;5041971;28;20511;-66
2024/01/29 02:23:29;;;;;;;11.05;6.45;;;3.80;99.90;;;;;;5049280;28;20068;-65
2024/01/29 02:25:55;;;;;;;10.57;6.07;;;3.80;99.90;;;;;;5045938;28;20040;-65
2024/01/29 02:28:23;;;;;;;11.35;6.05;;;3.80;99.90;;;;;;5047527;28;20064;-65
2024/01/29 02:30:49;;;;;;;11.13;6.55;;;3.70;99.90;;;;;;5044508;28;20043;-65
2024/01/29 02:33:14;;;;;;;11.98;5.90;;;3.70;99.90;;;;;;5033695;28;20419;-65
2024/01/29 02:35:40;;;;;;;12.77;6.75;;;3.70;99.90;;;;;;5033467;28;20037;-65
2024/01/29 02:38:05;;;;;;;11.77;6.72;;;3.70;99.90;;;;;;5039647;28;20026;-66
2024/01/29 02:40:31;;;;;;;13.35;6.95;;;3.60;99.90;;;;;;5049976;28;20053;-66
2024/01/29 02:42:57;;;;;;;9.00;6.20;;;3.60;99.90;;;;;;5051221;28;20037;-66
2024/01/29 02:45:22;;;;;;;11.48;6.53;;;3.50;99.90;;;;;;5031077;28;20081;-66
2024/01/29 02:47:48;;;;;;;10.57;6.53;;;3.50;99.90;;;;;;5039206;28;20038;-65
2024/01/29 02:50:13;;;;;;;11.20;6.82;;;3.40;99.90;;;;;;5044754;28;20048;-65
2024/01/29 02:52:39;;;;;;;11.18;6.32;;;3.40;99.90;;;;;;5044038;28;20033;-66
2024/01/29 02:55:05;;;;;;;14.15;6.65;;;3.40;99.90;;;;;;5041544;28;20045;-66
2024/01/29 02:57:30;;;;;;;9.90;5.85;;;3.30;99.90;;;;;;5051267;28;20048;-66
2024/01/29 02:59:56;;;;;;;10.48;6.40;;;3.30;99.90;;;;;;5039852;28;20503;-66
2024/01/29 03:02:21;;;;;;;10.25;6.22;;;3.30;99.90;;;;;;5040160;28;20029;-66
2024/01/29 03:04:47;;;;;;;9.48;5.68;;;3.30;99.90;;;;;;5051520;28;20114;-66
2024/01/29 03:07:12;;;;;;;13.77;6.30;;;3.30;99.90;;;;;;5045386;28;20164;-65
2024/01/29 03:09:38;;;;;;;10.98;6.43;;;3.30;99.90;;;;;;5042592;28;20052;-64
2024/01/29 03:12:04;;;;;;;10.60;6.45;;;3.20;99.90;;;;;;5042882;28;20043;-64
2024/01/29 03:14:29;;;;;;;9.25;5.60;;;3.20;99.90;;;;;;5046076;28;20051;-65
2024/01/29 03:16:55;;;;;;;11.73;6.72;;;3.10;99.90;;;;;;5033112;28;20026;-65
2024/01/29 03:19:21;;;;;;;11.45;6.32;;;3.10;99.90;;;;;;5039605;28;20042;-67
2024/01/29 03:21:46;;;;;;;11.10;6.57;;;3.00;99.90;;;;;;5051328;28;20064;-66
2024/01/29 03:24:12;;;;;;;10.32;6.20;;;3.10;99.90;;;;;;5040208;28;20037;-66
2024/01/29 03:26:38;;;;;;;10.63;6.40;;;3.20;99.90;;;;;;5038090;28;20030;-66
2024/01/29 03:29:03;;;;;;;9.57;5.97;;;3.40;99.90;;;;;;5042520;28;20449;-65
2024/01/29 03:31:29;;;;;;;10.60;6.18;;;3.40;99.90;;;;;;5047987;28;20419;-66
2024/01/29 03:33:55;;;;;;;11.05;6.60;;;3.30;99.90;;;;;;5011124;28;20033;-66
2024/01/29 03:36:21;;;;;;;11.27;6.22;;;3.30;99.90;;;;;;5047251;28;20057;-66
2024/01/29 03:38:46;;;;;;;10.07;6.45;;;3.30;99.90;;;;;;5046231;28;20129;-66
2024/01/29 03:41:12;;;;;;;11.60;6.25;;;3.30;99.90;;;;;;5043792;28;20033;-66
2024/01/29 03:43:37;;;;;;;12.93;6.40;;;3.40;99.90;;;;;;5051895;28;20075;-65
2024/01/29 03:46:03;;;;;;;9.35;6.35;;;3.20;99.90;;;;;;5046050;28;20115;-66
2024/01/29 03:48:29;;;;;;;12.57;6.25;;;3.20;99.90;;;;;;5054510;28;20577;-67
2024/01/29 03:50:54;;;;;;;13.98;6.72;;;3.10;99.90;;;;;;5043141;28;20040;-66
2024/01/29 03:53:20;;;;;;;12.18;6.68;;;3.10;99.90;;;;;;5048829;28;20037;-66
2024/01/29 03:55:47;;;;;;;11.02;6.30;;;3.00;99.90;;;;;;5040607;28;20044;-65
2024/01/29 03:58:12;;;;;;;10.73;6.53;;;3.00;99.90;;;;;;5048851;28;20029;-65
2024/01/29 04:00:38;;;;;;;10.93;6.75;;;3.00;99.90;;;;;;5048742;28;20036;-65
2024/01/29 04:03:04;;;;;;;10.82;6.85;;;3.10;99.90;;;;;;5038949;28;20067;-65
2024/01/29 04:05:30;;;;;;;12.88;6.53;;;3.00;99.90;;;;;;5034567;28;20511;-65
2024/01/29 04:07:55;;;;;;;12.32;6.80;;;3.00;99.90;;;;;;5040601;28;20032;-66
2024/01/29 04:10:21;;;;;;;11.50;6.55;;;3.00;99.90;;;;;;5051192;28;20051;-66
2024/01/29 04:12:47;;;;;;;11.65;6.45;;;3.00;99.90;;;;;;5046321;28;20127;-66
2024/01/29 04:15:13;;;;;;;12.50;6.53;;;3.00;99.90;;;;;;5042121;28;20040;-65
2024/01/29 04:17:39;;;;;;;12.05;6.93;;;3.00;99.90;;;;;;5044332;28;20029;-64
2024/01/29 04:20:05;;;;;;;12.20;7.00;;;2.90;99.90;;;;;;5048955;28;20116;-65
2024/01/29 04:22:34;;;;;;;12.30;7.00;;;3.00;99.90;;;;;;5042893;28;20458;-65
2024/01/29 04:25:02;;;;;;;10.05;6.65;;;3.00;99.90;;;;;;5041394;28;20400;-64
2024/01/29 04:27:28;;;;;;;10.45;6.18;;;2.90;99.90;;;;;;5045163;28;20533;-64
2024/01/29 04:29:53;;;;;;;10.27;6.20;;;2.90;99.90;;;;;;5035306;28;20033;-64
2024/01/29 04:32:19;;;;;;;11.73;7.07;;;2.90;99.90;;;;;;5039623;28;20487;-65
2024/01/29 04:34:45;;;;;;;10.95;6.68;;;2.90;99.90;;;;;;5034631;28;20048;-65
2024/01/29 04:37:10;;;;;;;12.70;6.72;;;3.00;99.90;;;;;;5034718;28;20033;-66
2024/01/29 04:39:39;;;;;;;14.50;7.22;;;3.00;99.90;;;;;;5045843;28;20527;-66
2024/01/29 04:42:05;;;;;;;12.38;6.80;;;3.10;99.90;;;;;;5048345;28;20037;-64
2024/01/29 04:44:31;;;;;;;12.93;6.80;;;3.20;99.90;;;;;;5046351;28;20056;-65
2024/01/29 04:46:58;;;;;;;12.93;6.45;;;3.30;99.90;;;;;;5023393;28;20040;-66
2024/01/29 04:49:23;;;;;;;13.15;7.43;;;3.30;99.90;;;;;;5043777;28;20456;-65
2024/01/29 04:51:49;;;;;;;12.63;7.07;;;3.30;99.90;;;;;;5037456;28;20503;-64
2024/01/29 04:54:15;;;;;;;13.48;6.57;;;3.30;99.90;;;;;;5035542;28;20116;-64
2024/01/29 04:56:40;;;;;;;10.98;6.78;;;3.40;99.90;;;;;;5044486;28;20033;-64
2024/01/29 04:59:06;;;;;;;12.48;6.50;;;3.40;99.90;;;;;;5051811;28;20037;-64
2024/01/29 05:01:31;;;;;;;11.35;6.75;;;3.40;99.90;;;;;;5050428;28;20047;-66
2024/01/29 05:03:57;;;;;;;12.98;7.03;;;3.50;99.90;;;;;;5034085;28;20520;-66
2024/01/29 05:06:23;;;;;;;11.45;6.65;;;3.50;99.90;;;;;;5044035;28;20439;-65
2024/01/29 05:08:48;;;;;;;16.77;6.97;;;3.50;99.90;;;;;;5044654;28;20116;-66
2024/01/29 05:11:14;;;;;;;10.93;6.53;;;3.40;99.90;;;;;;5051859;28;20111;-66
2024/01/29 05:13:40;;;;;;;13.48;7.07;;;3.30;99.90;;;;;;5037330;28;20033;-64
2024/01/29 05:16:06;;;;;;;10.27;7.10;;;3.30;99.90;;;;;;5040297;28;20622;-64
2024/01/29 05:18:32;;;;;;;12.15;6.57;;;3.20;99.90;;;;;;5037909;28;20480;-65
2024/01/29 05:20:58;;;;;;;12.05;6.80;;;3.10;99.90;;;;;;5038921;28;20039;-65
2024/01/29 05:23:24;;;;;;;13.18;7.28;;;3.10;99.90;;;;;;5042946;28;20038;-64
2024/01/29 05:25:50;;;;;;;13.52;7.13;;;3.10;99.90;;;;;;5039494;28;20063;-66
2024/01/29 05:28:16;;;;;;;11.77;6.95;;;3.10;99.90;;;;;;5031387;28;20511;-65
2024/01/29 05:30:41;;;;;;;12.98;6.97;;;3.00;99.90;;;;;;5032118;28;20037;-65
2024/01/29 05:33:07;;;;;;;13.05;6.85;;;3.00;99.90;;;;;;5037544;28;20033;-66
2024/01/29 05:35:33;;;;;;;11.10;6.80;;;3.00;99.90;;;;;;5041482;28;20040;-66
2024/01/29 05:37:58;;;;;;;16.75;6.88;;;3.00;99.90;;;;;;5037914;28;20069;-66
2024/01/29 05:40:24;;;;;;;10.82;6.68;;;3.00;99.90;;;;;;5044188;28;20044;-64
2024/01/29 05:42:53;;;;;;;11.32;6.45;;;3.00;99.90;;;;;;5038542;28;20044;-65
2024/01/29 05:45:19;;;;;;;13.68;6.72;;;3.00;99.90;;;;;;5030554;28;20073;-65
2024/01/29 05:47:45;;;;;;;11.75;6.78;;;3.00;99.90;;;;;;5044118;28;20033;-65
2024/01/29 05:50:10;;;;;;;15.65;7.28;;;2.90;99.90;;;;;;5043877;28;20032;-66
2024/01/29 05:52:36;;;;;;;15.90;7.47;;;2.90;99.90;;;;;;5049884;28;20411;-68
2024/01/29 05:55:02;;;;;;;13.40;7.10;;;2.80;99.90;;;;;;5035150;28;20033;-65
2024/01/29 05:57:28;;;;;;;15.45;7.20;;;2.80;99.90;;;;;;5031869;28;20041;-66
2024/01/29 05:59:53;;;;;;;13.10;7.35;;;2.80;99.90;;;;;;5035520;28;20029;-65
2024/01/29 06:02:19;;;;;;;11.65;6.90;;;2.80;99.90;;;;;;5038986;28;20040;-66
2024/01/29 06:04:45;;;;;;;11.45;7.10;;;2.80;99.90;;;;;;5041758;28;20032;-66
2024/01/29 06:07:10;;;;;;;13.95;7.40;;;2.80;99.90;;;;;;5043710;28;20475;-66
2024/01/29 06:09:36;;;;;;;15.93;6.93;;;2.90;99.90;;;;;;5039335;28;20033;-67
2024/01/29 06:12:05;;;;;;;12.40;7.30;;;3.00;99.90;;;;;;5038069;28;20112;-69
2024/01/29 06:14:31;;;;;;;11.77;7.35;;;3.10;99.90;;;;;;5020558;28;20472;-66
2024/01/29 06:16:57;;;;;;;12.70;7.18;;;3.10;99.90;;;;;;5039757;28;20033;-67
2024/01/29 06:19:23;;;;;;;12.25;7.55;;;3.10;99.90;;;;;;5038126;28;20667;-66
2024/01/29 06:21:50;;;;;;;12.30;7.47;;;3.10;99.90;;;;;;5041732;28;20037;-66
2024/01/29 06:24:15;;;;;;;11.75;7.20;;;3.10;99.90;;;;;;5037802;28;20033;-66
2024/01/29 06:26:42;;;;;;;12.63;7.45;;;3.20;99.90;;;;;;5044128;28;20033;-66
2024/01/29 06:29:07;;;;;;;13.20;7.60;;;3.20;99.90;;;;;;5035366;28;20120;-66
2024/01/29 06:31:33;;;;;;;13.93;7.63;;;3.30;99.90;;;;;;5040898;28;20133;-66
2024/01/29 06:33:59;;;;;;;12.38;7.13;;;3.20;99.90;;;;;;5035060;28;20063;-65
2024/01/29 06:36:24;;;;;;;12.23;7.60;;;3.20;99.90;;;;;;5035726;28;20526;-66
2024/01/29 06:38:50;;;;;;;12.68;7.20;;;3.10;99.90;;;;;;5033011;28;20068;-65
2024/01/29 06:41:23;;;;;;;15.43;7.97;;;3.10;99.90;;;;;;5035157;28;20095;-66
2024/01/29 06:43:49;;;;;;;13.20;7.45;;;3.00;99.90;;;;;;5035720;28;21525;-65
2024/01/29 06:46:15;;;;;;;12.95;7.43;;;2.90;99.90;;;;;;5035091;28;20037;-66
2024/01/29 06:48:40;;;;;;;13.00;7.30;;;2.90;99.90;;;;;;5037251;28;20044;-65
2024/01/29 06:51:06;;;;;;;12.85;7.35;;;2.90;99.90;;;;;;5029585;28;20041;-67
2024/01/29 06:53:35;;;;;;;13.82;6.90;;;2.90;99.90;;;;;;5039465;28;20049;-65
2024/01/29 06:56:02;;;;;;;14.90;7.72;;;2.90;99.90;;;;;;5034373;28;20041;-66
2024/01/29 06:58:29;;;;;;;12.50;7.43;;;2.90;99.90;;;;;;5040222;28;20055;-65
2024/01/29 07:01:01;;;;;;;11.25;6.97;;;2.80;99.90;;;;;;5039537;28;20503;-64
2024/01/29 07:03:26;;;;;;;14.23;7.47;;;2.90;99.90;;;;;;5032828;28;20131;-65
2024/01/29 07:05:52;;;;;;;13.75;7.70;;;2.80;99.90;;;;;;5040304;28;20674;-65
2024/01/29 07:08:18;;;;;;;17.92;7.72;;;2.90;99.90;;;;;;5041393;28;20500;-65
2024/01/29 07:10:44;;;;;;;13.48;8.05;;;2.90;99.90;;;;;;5050712;28;20120;-66
2024/01/29 07:13:10;;;;;;;14.95;8.45;;;3.00;99.90;;;;;;5046869;28;20043;-66
2024/01/29 07:15:36;;;;;;;14.63;8.18;;;3.10;99.90;;;;;;5043149;28;20045;-66
2024/01/29 07:18:02;;;;;;;15.57;8.45;;;3.20;99.90;;;;;;5032329;28;20033;-66
2024/01/29 07:20:29;;;;;;;13.02;8.32;;;3.30;99.90;;;;;;5048138;28;20082;-66
2024/01/29 07:22:55;;;;;;;14.55;8.15;;;3.30;99.90;;;;;;5048257;28;20425;-67
2024/01/29 07:25:21;;;;;;;12.52;8.65;;;3.40;99.90;;;;;;5053689;28;20045;-66
2024/01/29 07:27:47;;;;;;;11.40;7.72;;;3.40;99.90;;;;;;5038694;28;20036;-67
2024/01/29 07:30:13;;;;;;;14.32;8.15;;;3.50;99.90;;;;;;5042768;28;20029;-66
2024/01/29 07:32:39;;;;;;;11.63;7.90;;;3.50;99.90;;;;;;5046645;28;20037;-66
2024/01/29 07:35:06;;;;;;;13.57;8.32;;;3.50;99.90;;;;;;5040743;28;20038;-66
2024/01/29 07:37:32;;;;;;;16.33;8.65;;;3.50;99.90;;;;;;5045354;28;20059;-66
2024/01/29 07:39:58;;;;;;;14.43;8.57;;;3.50;99.90;;;;;;5037752;28;20029;-66
2024/01/29 07:42:23;;;;;;;13.68;8.10;;;3.50;99.90;;;;;;5040635;28;20037;-67
2024/01/29 07:44:51;;;;;;;13.35;7.93;;;3.50;99.90;;;;;;5036368;28;20064;-67
2024/01/29 07:47:17;;;;;;;13.23;8.18;;;3.50;99.90;;;;;;5039896;28;20488;-64
2024/01/29 07:49:42;;;;;;;11.40;7.75;;;3.60;99.90;;;;;;5050941;28;20487;-65
2024/01/29 07:52:09;;;;;;;16.25;8.30;;;3.60;99.90;;;;;;5038777;28;20066;-65
2024/01/29 07:54:35;;;;;;;13.50;8.25;;;3.50;99.90;;;;;;5039107;28;20041;-65
2024/01/29 07:57:01;;;;;;;14.15;8.02;;;3.50;99.90;;;;;;5044754;28;20058;-66
2024/01/29 07:59:26;;;;;;;14.15;8.80;;;3.50;99.90;;;;;;5047641;28;20475;-64
2024/01/29 08:01:52;;;;;;;13.23;8.00;;;3.60;99.90;;;;;;5040050;28;20126;-65
2024/01/29 08:04:17;;;;;;;15.35;8.30;;;3.50;99.90;;;;;;5034765;28;20037;-65
2024/01/29 08:06:43;;;;;;;14.05;8.25;;;3.60;99.90;;;;;;5033635;28;20041;-65
2024/01/29 08:09:08;;;;;;;15.80;8.40;;;3.60;99.90;;;;;;5041609;28;20043;-64
2024/01/29 08:11:34;;;;;;;12.98;7.85;;;3.70;99.90;;;;;;5044257;28;20033;-65
2024/01/29 08:14:00;;;;;;;14.93;8.40;;;3.80;99.90;;;;;;5049395;28;20037;-64
2024/01/29 08:16:26;;;;;;;14.63;8.90;;;3.90;99.90;;;;;;5051327;28;20041;-65
2024/01/29 08:18:51;;;;;;;12.90;7.40;;;4.00;99.90;;;;;;5033541;28;20518;-64
2024/01/29 08:21:19;;;;;;;15.43;8.30;;;4.00;99.90;;;;;;5033417;28;20475;-65
2024/01/29 08:23:45;;;;;;;14.23;8.30;;;4.00;99.90;;;;;;5039317;28;20037;-66
2024/01/29 08:26:11;;;;;;;13.20;8.15;;;4.10;99.90;;;;;;5044592;28;20037;-65
2024/01/29 08:28:36;;;;;;;13.23;8.23;;;4.20;99.90;;;;;;5042293;28;20033;-65
2024/01/29 08:31:02;;;;;;;13.23;8.70;;;4.30;99.90;;;;;;5033706;28;20100;-64
2024/01/29 08:33:28;;;;;;;13.68;8.20;;;4.30;99.90;;;;;;5041448;28;20037;-65
2024/01/29 08:35:55;;;;;;;17.05;8.98;;;4.40;99.90;;;;;;5047085;28;20616;-65
2024/01/29 08:38:20;;;;;;;16.45;9.20;;;4.50;99.90;;;;;;5035994;28;20407;-64
2024/01/29 08:40:46;;;;;;;15.90;9.35;;;4.60;99.90;;;;;;5031210;28;20038;-65
2024/01/29 08:43:12;;;;;;;14.80;8.77;;;4.70;99.90;;;;;;5039572;28;20480;-65
2024/01/29 08:45:38;;;;;;;15.80;9.10;;;4.70;99.90;;;;;;5040180;28;20033;-65
2024/01/29 08:48:04;;;;;;;16.15;8.88;;;4.80;99.90;;;;;;5033087;28;20037;-65
2024/01/29 08:50:34;;;;;;;14.13;8.50;;;4.90;99.90;;;;;;5031299;28;20533;-64
2024/01/29 08:53:00;;;;;;;13.20;7.95;;;5.00;99.90;;;;;;5042353;28;20044;-65
2024/01/29 08:55:25;;;;;;;12.13;8.70;;;5.10;99.90;;;;;;5051108;28;20037;-65
2024/01/29 08:57:51;;;;;;;15.25;9.13;;;5.20;99.90;;;;;;5037993;28;20163;-65
2024/01/29 09:00:16;;;;;;;15.90;8.68;;;5.30;99.90;;;;;;5046509;28;20033;-65
2024/01/29 09:02:43;;;;;;;14.25;8.63;;;5.30;99.90;;;;;;5032269;28;20524;-65
2024/01/29 09:05:08;;;;;;;16.02;9.05;;;5.40;99.90;;;;;;5033334;28;20046;-66
2024/01/29 09:07:35;;;;;;;14.10;8.93;;;5.40;99.90;;;;;;5032154;28;20044;-65
2024/01/29 09:10:01;;;;;;;12.05;7.97;;;5.50;99.90;;;;;;5041167;28;20047;-65
2024/01/29 09:12:26;;;;;;;13.18;8.35;;;5.60;99.90;;;;;;5052398;28;20116;-65
2024/01/29 09:14:52;;;;;;;15.95;9.50;;;5.60;99.90;;;;;;5046415;28;20410;-65
2024/01/29 09:17:17;;;;;;;15.73;9.32;;;5.70;99.90;;;;;;5047297;28;20499;-65
2024/01/29 09:19:45;;;;;;;14.63;7.78;;;5.70;99.90;;;;;;5040696;28;20037;-65
2024/01/29 09:22:14;;;;;;;15.55;9.00;;;5.70;99.90;;;;;;5030889;28;20044;-65
2024/01/29 09:24:39;;;;;;;17.60;10.45;;;5.80;99.90;;;;;;5050548;28;20114;-65
2024/01/29 09:27:05;;;;;;;13.05;8.55;;;5.90;99.90;;;;;;5036015;28;20511;-66
2024/01/29 09:29:31;;;;;;;13.98;8.20;;;5.90;99.90;;;;;;5032798;28;20048;-65
2024/01/29 09:31:56;;;;;;;14.77;10.00;;;6.00;99.90;;;;;;5033433;28;20079;-65
2024/01/29 09:34:24;;;;;;;15.57;9.80;;;6.00;99.90;;;;;;5034205;28;20071;-66
2024/01/29 09:36:50;;;;;;;12.98;8.90;;;6.10;99.90;;;;;;5039448;28;20033;-66
2024/01/29 09:39:17;;;;;;;17.17;9.23;;;6.20;99.90;;;;;;5042978;28;20040;-66
2024/01/29 09:41:43;;;;;;;16.08;9.57;;;6.20;99.90;;;;;;5030975;28;20124;-66
2024/01/29 09:44:09;;;;;;;17.15;9.52;;;6.30;99.90;;;;;;5034629;28;20112;-67
2024/01/29 09:46:38;;;;;;;15.45;9.93;;;6.40;99.90;;;;;;5048023;28;20051;-66
2024/01/29 09:49:07;;;;;;;16.25;9.55;;;6.50;99.90;;;;;;5049362;28;20551;-66
2024/01/29 09:51:34;;;;;;;16.23;9.35;;;6.60;99.90;;;;;;5042339;28;20049;-66
2024/01/29 09:54:01;;;;;;;15.90;9.50;;;6.80;99.90;;;;;;5041487;28;20455;-67
2024/01/29 09:56:27;;;;;;;16.90;10.13;;;6.90;99.90;;;;;;5029021;28;20042;-64
2024/01/29 09:58:53;;;;;;;17.02;9.90;;;7.00;99.90;;;;;;5034594;28;20068;-66
2024/01/29 10:01:21;;;;;;;15.90;10.00;;;7.10;99.90;;;;;;5035771;28;20385;-66
2024/01/29 10:03:47;;;;;;;15.30;10.23;;;7.20;99.90;;;;;;5046049;28;20048;-65
2024/01/29 10:06:13;;;;;;;14.40;9.93;;;7.30;99.90;;;;;;5036997;28;20060;-65
2024/01/29 10:08:39;;;;;;;17.33;10.20;;;7.30;99.90;;;;;;5041707;28;20043;-66
2024/01/29 10:11:05;;;;;;;18.85;10.85;;;7.40;99.90;;;;;;5040459;28;20514;-65
2024/01/29 10:13:31;;;;;;;16.17;10.10;;;7.40;99.90;;;;;;5039393;28;20045;-66
2024/01/29 10:15:58;;;;;;;17.27;10.45;;;7.40;99.90;;;;;;5030293;28;20044;-64
2024/01/29 10:18:23;;;;;;;16.02;10.07;;;7.50;99.90;;;;;;5044007;28;20434;-67
2024/01/29 10:21:04;;;;;;;17.05;10.88;;;7.50;99.90;;;;;;5040370;28;20030;-66
2024/01/29 10:23:30;;;;;;;16.52;10.43;;;7.60;99.90;;;;;;5041231;28;20068;-66
2024/01/29 10:25:57;;;;;;;17.73;10.70;;;7.60;99.90;;;;;;5042271;28;20032;-66
2024/01/29 10:28:23;;;;;;;15.48;10.18;;;7.60;99.90;;;;;;5042544;28;20121;-66
2024/01/29 10:30:50;;;;;;;19.25;10.90;;;7.60;99.90;;;;;;5036065;28;20041;-66
2024/01/29 10:33:16;;;;;;;18.40;10.23;;;7.70;99.90;;;;;;5039565;28;20047;-65
2024/01/29 10:35:41;;;;;;;16.42;10.55;;;7.60;99.90;;;;;;5030474;28;20037;-66
2024/01/29 10:38:07;;;;;;;17.70;11.27;;;7.70;99.90;;;;;;5031145;28;20495;-66
2024/01/29 10:40:33;;;;;;;17.75;11.13;;;7.70;99.90;;;;;;5045680;28;20036;-66
2024/01/29 10:43:01;;;;;;;18.52;11.10;;;7.70;99.90;;;;;;5031232;28;20045;-65
2024/01/29 10:45:27;;;;;;;16.63;10.57;;;7.70;99.90;;;;;;5031578;28;20048;-67
2024/01/29 10:48:22;;;;;;;16.45;10.25;;;7.80;99.90;;;;;;5032767;28;20075;-66
2024/01/29 10:50:49;;;;;;;18.55;12.02;;;7.80;99.90;;;;;;5042158;28;20053;-66
2024/01/29 10:53:20;;;;;;;15.82;10.95;;;7.70;99.90;;;;;;5049118;28;20041;-67
2024/01/29 10:55:50;;;;;;;16.13;10.73;;;7.70;99.90;;;;;;5035482;28;20460;-66
2024/01/29 10:58:17;;;;;;;21.03;11.57;;;7.70;99.90;;;;;;5039104;28;20108;-65
2024/01/29 11:00:44;;;;;;;17.00;10.95;;;7.60;99.90;;;;;;5041765;28;20668;-66
2024/01/29 11:03:12;;;;;;;16.98;11.30;;;7.70;99.90;;;;;;5043193;28;20033;-66
2024/01/29 11:05:39;;;;;;;16.63;11.43;;;7.80;99.90;;;;;;5042351;28;20049;-67
2024/01/29 11:08:09;;;;;;;18.00;10.95;;;7.90;99.90;;;;;;5049812;28;20048;-66
2024/01/29 11:10:35;;;;;;;17.10;11.75;;;8.00;99.90;;;;;;5041246;28;20070;-67
2024/01/29 11:13:03;;;;;;;21.15;12.02;;;8.00;99.90;;;;;;5049125;28;20044;-66
2024/01/29 11:15:30;;;;;;;17.30;12.05;;;8.10;99.90;;;;;;5034317;28;20050;-66
2024/01/29 11:17:59;;;;;;;15.73;10.85;;;8.30;99.90;;;;;;5049870;28;20049;-66
2024/01/29 11:20:25;;;;;;;19.05;11.43;;;8.20;99.90;;;;;;5047787;28;20049;-66
2024/01/29 11:22:57;;;;;;;19.88;10.82;;;8.30;99.90;;;;;;5049993;28;20032;-66
2024/01/29 11:25:24;;;;;;;19.00;11.23;;;8.40;99.90;;;;;;5041525;28;20045;-66
2024/01/29 11:27:50;;;;;;;16.40;11.60;;;8.50;99.90;;;;;;5029294;28;20493;-67
2024/01/29 11:30:20;;;;;;;18.17;11.10;;;8.60;99.90;;;;;;5044371;28;20164;-65
2024/01/29 11:32:47;;;;;;;17.17;11.80;;;8.60;99.90;;;;;;5030679;28;20029;-66
2024/01/29 11:35:15;;;;;;;18.23;12.43;;;8.60;99.90;;;;;;5028233;28;20439;-66
2024/01/29 11:37:41;;;;;;;20.23;11.95;;;8.60;99.90;;;;;;5042061;28;20045;-67
2024/01/29 11:40:30;;;;;;;21.13;12.02;;;8.70;99.90;;;;;;5028592;28;20404;-67
2024/01/29 11:42:56;;;;;;;17.35;12.63;;;8.80;99.90;;;;;;5036299;28;20053;-66
2024/01/29 11:45:23;;;;;;;18.63;12.05;;;8.90;99.90;;;;;;5029078;28;20171;-67
2024/01/29 11:47:49;;;;;;;20.08;12.60;;;8.90;99.90;;;;;;5035494;28;20500;-66
2024/01/29 11:50:15;;;;;;;18.30;11.68;;;9.00;99.90;;;;;;5036830;28;20029;-65
2024/01/29 11:52:40;;;;;;;17.50;11.93;;;9.10;99.90;;;;;;5035185;28;20037;-65
2024/01/29 11:55:06;;;;;;;18.77;12.07;;;9.00;99.90;;;;;;5038184;28;20495;-65
2024/01/29 11:57:32;;;;;;;20.75;12.77;;;9.10;99.90;;;;;;5034437;28;20041;-65
2024/01/29 12:00:00;;;;;;;20.25;12.32;;;9.20;99.90;;;;;;5042921;28;20044;-66
2024/01/29 12:02:27;;;;;;;20.00;12.25;;;9.20;99.90;;;;;;5038443;28;20121;-65
2024/01/29 12:04:53;;;;;;;18.40;12.18;;;9.30;99.90;;;;;;5043169;28;20094;-65
2024/01/29 12:07:19;;;;;;;22.05;13.40;;;9.40;99.90;;;;;;5042436;28;20115;-65
2024/01/29 12:09:44;;;;;;;18.90;11.82;;;9.40;99.90;;;;;;5039171;28;20033;-65
2024/01/29 12:12:11;;;;;;;17.25;12.63;;;9.50;99.90;;;;;;5034640;28;20045;-66
2024/01/29 12:14:36;;;;;;;20.88;13.13;;;9.50;99.90;;;;;;5041316;28;20147;-66
2024/01/29 12:17:05;;;;;;;20.73;11.95;;;9.60;99.90;;;;;;5043294;28;20436;-65
2024/01/29 12:19:30;;;;;;;20.48;12.20;;;9.60;99.90;;;;;;5044670;28;20041;-66
2024/01/29 12:21:56;;;;;;;18.77;12.48;;;9.60;99.90;;;;;;5043353;28;20034;-66
2024/01/29 12:24:22;;;;;;;22.38;13.05;;;9.60;99.90;;;;;;5043047;28;20063;-67
2024/01/29 12:26:47;;;;;;;22.60;13.45;;;9.70;99.90;;;;;;5044380;28;20064;-66
2024/01/29 12:29:14;;;;;;;24.88;13.25;;;9.80;99.90;;;;;;5039659;28;20486;-66
2024/01/29 12:31:39;;;;;;;20.65;13.48;;;9.80;99.90;;;;;;5045495;28;20124;-67
2024/01/29 12:34:08;;;;;;;20.27;13.75;;;9.80;99.90;;;;;;5045213;28;20152;-70
2024/01/29 12:36:33;;;;;;;18.75;12.43;;;9.70;99.90;;;;;;5044630;28;20180;-67
2024/01/29 12:39:00;;;;;;;20.20;12.27;;;9.70;99.90;;;;;;5042347;28;20120;-66